sensor_id;sensor_type;location;lat;lon;timestamp;P1;durP1;ratioP1;P2;durP2;ratioP2
22557;SDS011;11445;53.816;8.902;2023-03-14T00:01:57;15.90;;;3.50;;
22557;SDS011;11445;53.816;8.902;2023-03-14T00:04:24;28.13;;;4.03;;
22557;SDS011;11445;53.816;8.902;2023-03-14T00:06:52;21.88;;;3.38;;
22557;SDS011;11445;53.816;8.902;2023-03-14T00:09:20;26.10;;;4.63;;
22557;SDS011;11445;53.816;8.902;2023-03-14T00:11:47;29.90;;;4.65;;
22557;SDS011;11445;53.816;8.902;2023-03-14T00:14:14;28.90;;;3.75;;
22557;SDS011;11445;53.816;8.902;2023-03-14T00:16:41;26.35;;;4.45;;
22557;SDS011;11445;53.816;8.902;2023-03-14T00:19:11;25.13;;;4.50;;
22557;SDS011;11445;53.816;8.902;2023-03-14T00:21:38;21.33;;;4.93;;
22557;SDS011;11445;53.816;8.902;2023-03-14T00:24:06;32.67;;;4.95;;
22557;SDS011;11445;53.816;8.902;2023-03-14T00:26:35;25.20;;;4.72;;
22557;SDS011;11445;53.816;8.902;2023-03-14T00:29:02;24.50;;;5.45;;
22557;SDS011;11445;53.816;8.902;2023-03-14T00:31:29;21.08;;;3.25;;
22557;SDS011;11445;53.816;8.902;2023-03-14T00:33:56;27.85;;;4.57;;
22557;SDS011;11445;53.816;8.902;2023-03-14T00:36:23;26.58;;;4.15;;
22557;SDS011;11445;53.816;8.902;2023-03-14T00:38:51;21.35;;;4.20;;
22557;SDS011;11445;53.816;8.902;2023-03-14T00:41:19;27.80;;;4.63;;
22557;SDS011;11445;53.816;8.902;2023-03-14T00:43:49;34.95;;;5.18;;
22557;SDS011;11445;53.816;8.902;2023-03-14T00:46:17;29.67;;;4.15;;
22557;SDS011;11445;53.816;8.902;2023-03-14T00:48:44;25.98;;;4.45;;
22557;SDS011;11445;53.816;8.902;2023-03-14T00:51:12;23.10;;;4.32;;
22557;SDS011;11445;53.816;8.902;2023-03-14T00:53:40;25.27;;;4.80;;
22557;SDS011;11445;53.816;8.902;2023-03-14T00:56:09;26.13;;;4.82;;
22557;SDS011;11445;53.816;8.902;2023-03-14T00:58:37;20.40;;;3.70;;
22557;SDS011;11445;53.816;8.902;2023-03-14T01:01:07;23.17;;;4.10;;
22557;SDS011;11445;53.816;8.902;2023-03-14T01:03:34;23.02;;;4.25;;
22557;SDS011;11445;53.816;8.902;2023-03-14T01:06:09;20.92;;;4.57;;
22557;SDS011;11445;53.816;8.902;2023-03-14T01:08:37;26.65;;;4.38;;
22557;SDS011;11445;53.816;8.902;2023-03-14T01:11:05;21.08;;;3.92;;
22557;SDS011;11445;53.816;8.902;2023-03-14T01:13:33;30.67;;;4.80;;
22557;SDS011;11445;53.816;8.902;2023-03-14T01:16:01;25.58;;;4.70;;
22557;SDS011;11445;53.816;8.902;2023-03-14T01:18:32;18.65;;;4.10;;
22557;SDS011;11445;53.816;8.902;2023-03-14T01:21:00;35.67;;;4.72;;
22557;SDS011;11445;53.816;8.902;2023-03-14T01:23:27;24.83;;;3.95;;
22557;SDS011;11445;53.816;8.902;2023-03-14T01:25:54;23.23;;;3.67;;
22557;SDS011;11445;53.816;8.902;2023-03-14T01:28:21;20.30;;;3.78;;
22557;SDS011;11445;53.816;8.902;2023-03-14T01:30:48;30.23;;;4.63;;
22557;SDS011;11445;53.816;8.902;2023-03-14T01:33:15;29.10;;;4.07;;
22557;SDS011;11445;53.816;8.902;2023-03-14T01:35:43;24.00;;;3.90;;
22557;SDS011;11445;53.816;8.902;2023-03-14T01:38:11;23.80;;;4.45;;
22557;SDS011;11445;53.816;8.902;2023-03-14T01:40:41;22.00;;;3.80;;
22557;SDS011;11445;53.816;8.902;2023-03-14T01:43:13;27.73;;;4.18;;
22557;SDS011;11445;53.816;8.902;2023-03-14T01:48:44;24.80;;;4.45;;
22557;SDS011;11445;53.816;8.902;2023-03-14T01:51:16;33.35;;;4.32;;
22557;SDS011;11445;53.816;8.902;2023-03-14T01:53:46;26.60;;;4.00;;
22557;SDS011;11445;53.816;8.902;2023-03-14T01:56:15;20.13;;;3.28;;
22557;SDS011;11445;53.816;8.902;2023-03-14T01:58:44;23.63;;;3.75;;
22557;SDS011;11445;53.816;8.902;2023-03-14T02:01:14;23.60;;;4.35;;
22557;SDS011;11445;53.816;8.902;2023-03-14T02:03:44;18.08;;;3.92;;
22557;SDS011;11445;53.816;8.902;2023-03-14T02:06:17;27.50;;;3.85;;
22557;SDS011;11445;53.816;8.902;2023-03-14T02:08:47;20.33;;;4.70;;
22557;SDS011;11445;53.816;8.902;2023-03-14T02:11:15;19.38;;;4.00;;
22557;SDS011;11445;53.816;8.902;2023-03-14T02:13:42;24.88;;;4.18;;
22557;SDS011;11445;53.816;8.902;2023-03-14T02:16:10;18.80;;;3.40;;
22557;SDS011;11445;53.816;8.902;2023-03-14T02:18:37;25.83;;;4.00;;
22557;SDS011;11445;53.816;8.902;2023-03-14T02:21:09;18.40;;;4.38;;
22557;SDS011;11445;53.816;8.902;2023-03-14T02:23:42;17.38;;;3.35;;
22557;SDS011;11445;53.816;8.902;2023-03-14T02:26:15;28.52;;;4.25;;
22557;SDS011;11445;53.816;8.902;2023-03-14T02:28:48;17.45;;;3.60;;
22557;SDS011;11445;53.816;8.902;2023-03-14T02:31:16;14.27;;;3.35;;
22557;SDS011;11445;53.816;8.902;2023-03-14T02:33:43;17.27;;;3.75;;
22557;SDS011;11445;53.816;8.902;2023-03-14T02:36:11;22.17;;;4.40;;
22557;SDS011;11445;53.816;8.902;2023-03-14T02:38:41;21.10;;;4.25;;
22557;SDS011;11445;53.816;8.902;2023-03-14T02:41:13;19.27;;;3.83;;
22557;SDS011;11445;53.816;8.902;2023-03-14T02:43:40;12.10;;;2.88;;
22557;SDS011;11445;53.816;8.902;2023-03-14T02:46:09;17.05;;;3.47;;
22557;SDS011;11445;53.816;8.902;2023-03-14T02:48:38;14.52;;;3.15;;
22557;SDS011;11445;53.816;8.902;2023-03-14T02:51:09;12.18;;;3.50;;
22557;SDS011;11445;53.816;8.902;2023-03-14T02:53:38;9.75;;;3.42;;
22557;SDS011;11445;53.816;8.902;2023-03-14T02:56:06;15.13;;;3.60;;
22557;SDS011;11445;53.816;8.902;2023-03-14T02:58:34;16.75;;;3.63;;
22557;SDS011;11445;53.816;8.902;2023-03-14T03:01:02;7.95;;;3.38;;
22557;SDS011;11445;53.816;8.902;2023-03-14T03:03:30;14.50;;;3.78;;
22557;SDS011;11445;53.816;8.902;2023-03-14T03:05:58;9.05;;;3.15;;
22557;SDS011;11445;53.816;8.902;2023-03-14T03:08:25;8.63;;;2.58;;
22557;SDS011;11445;53.816;8.902;2023-03-14T03:10:53;15.23;;;3.65;;
22557;SDS011;11445;53.816;8.902;2023-03-14T03:13:21;13.10;;;2.35;;
22557;SDS011;11445;53.816;8.902;2023-03-14T03:15:48;5.18;;;1.90;;
22557;SDS011;11445;53.816;8.902;2023-03-14T03:18:15;14.15;;;2.15;;
22557;SDS011;11445;53.816;8.902;2023-03-14T03:20:44;11.25;;;2.60;;
22557;SDS011;11445;53.816;8.902;2023-03-14T03:23:11;7.25;;;2.63;;
22557;SDS011;11445;53.816;8.902;2023-03-14T03:25:38;13.63;;;3.28;;
22557;SDS011;11445;53.816;8.902;2023-03-14T03:28:05;10.40;;;2.47;;
22557;SDS011;11445;53.816;8.902;2023-03-14T03:30:33;10.10;;;2.38;;
22557;SDS011;11445;53.816;8.902;2023-03-14T03:33:03;4.95;;;2.00;;
22557;SDS011;11445;53.816;8.902;2023-03-14T03:35:30;6.32;;;2.13;;
22557;SDS011;11445;53.816;8.902;2023-03-14T03:37:58;4.68;;;1.90;;
22557;SDS011;11445;53.816;8.902;2023-03-14T03:40:25;7.53;;;1.75;;
22557;SDS011;11445;53.816;8.902;2023-03-14T03:42:52;10.95;;;1.92;;
22557;SDS011;11445;53.816;8.902;2023-03-14T03:45:20;5.07;;;2.17;;
22557;SDS011;11445;53.816;8.902;2023-03-14T03:47:47;4.85;;;2.45;;
22557;SDS011;11445;53.816;8.902;2023-03-14T03:50:14;8.05;;;2.42;;
22557;SDS011;11445;53.816;8.902;2023-03-14T03:52:41;13.93;;;3.10;;
22557;SDS011;11445;53.816;8.902;2023-03-14T03:55:09;12.52;;;2.13;;
22557;SDS011;11445;53.816;8.902;2023-03-14T03:57:36;8.05;;;2.22;;
22557;SDS011;11445;53.816;8.902;2023-03-14T04:00:04;10.38;;;2.58;;
22557;SDS011;11445;53.816;8.902;2023-03-14T04:02:34;15.00;;;3.38;;
22557;SDS011;11445;53.816;8.902;2023-03-14T04:05:01;13.27;;;3.17;;
22557;SDS011;11445;53.816;8.902;2023-03-14T04:07:28;16.38;;;5.00;;
22557;SDS011;11445;53.816;8.902;2023-03-14T04:09:57;17.92;;;4.20;;
22557;SDS011;11445;53.816;8.902;2023-03-14T04:12:26;22.13;;;4.45;;
22557;SDS011;11445;53.816;8.902;2023-03-14T04:14:53;15.90;;;3.97;;
22557;SDS011;11445;53.816;8.902;2023-03-14T04:17:20;16.65;;;3.70;;
22557;SDS011;11445;53.816;8.902;2023-03-14T04:19:47;15.75;;;4.53;;
22557;SDS011;11445;53.816;8.902;2023-03-14T04:22:16;24.38;;;4.68;;
22557;SDS011;11445;53.816;8.902;2023-03-14T04:24:43;17.17;;;3.63;;
22557;SDS011;11445;53.816;8.902;2023-03-14T04:27:10;22.30;;;3.95;;
22557;SDS011;11445;53.816;8.902;2023-03-14T04:29:41;14.07;;;3.67;;
22557;SDS011;11445;53.816;8.902;2023-03-14T04:32:08;20.98;;;4.28;;
22557;SDS011;11445;53.816;8.902;2023-03-14T04:34:35;12.27;;;3.92;;
22557;SDS011;11445;53.816;8.902;2023-03-14T04:37:02;22.25;;;5.35;;
22557;SDS011;11445;53.816;8.902;2023-03-14T04:39:29;28.00;;;4.82;;
22557;SDS011;11445;53.816;8.902;2023-03-14T04:41:56;15.32;;;3.65;;
22557;SDS011;11445;53.816;8.902;2023-03-14T04:44:23;14.60;;;3.95;;
22557;SDS011;11445;53.816;8.902;2023-03-14T04:46:52;21.15;;;4.53;;
22557;SDS011;11445;53.816;8.902;2023-03-14T04:49:19;17.13;;;4.10;;
22557;SDS011;11445;53.816;8.902;2023-03-14T04:51:46;14.68;;;4.78;;
22557;SDS011;11445;53.816;8.902;2023-03-14T04:54:13;14.38;;;4.38;;
22557;SDS011;11445;53.816;8.902;2023-03-14T04:56:40;14.93;;;4.90;;
22557;SDS011;11445;53.816;8.902;2023-03-14T04:59:07;18.38;;;4.82;;
22557;SDS011;11445;53.816;8.902;2023-03-14T05:01:34;21.70;;;5.03;;
22557;SDS011;11445;53.816;8.902;2023-03-14T05:04:03;18.10;;;4.00;;
22557;SDS011;11445;53.816;8.902;2023-03-14T05:06:30;21.40;;;4.95;;
22557;SDS011;11445;53.816;8.902;2023-03-14T05:08:57;20.75;;;4.97;;
22557;SDS011;11445;53.816;8.902;2023-03-14T05:11:24;18.33;;;4.32;;
22557;SDS011;11445;53.816;8.902;2023-03-14T05:13:51;18.90;;;4.63;;
22557;SDS011;11445;53.816;8.902;2023-03-14T05:16:18;14.75;;;4.65;;
22557;SDS011;11445;53.816;8.902;2023-03-14T05:18:45;22.25;;;5.30;;
22557;SDS011;11445;53.816;8.902;2023-03-14T05:21:13;19.50;;;5.00;;
22557;SDS011;11445;53.816;8.902;2023-03-14T05:23:40;13.52;;;4.53;;
22557;SDS011;11445;53.816;8.902;2023-03-14T05:26:07;21.08;;;5.53;;
22557;SDS011;11445;53.816;8.902;2023-03-14T05:28:34;18.85;;;4.97;;
22557;SDS011;11445;53.816;8.902;2023-03-14T05:31:05;16.05;;;4.80;;
22557;SDS011;11445;53.816;8.902;2023-03-14T05:33:33;23.10;;;5.63;;
22557;SDS011;11445;53.816;8.902;2023-03-14T05:36:00;15.70;;;4.80;;
22557;SDS011;11445;53.816;8.902;2023-03-14T05:38:28;13.20;;;4.93;;
22557;SDS011;11445;53.816;8.902;2023-03-14T05:40:55;11.27;;;5.10;;
22557;SDS011;11445;53.816;8.902;2023-03-14T05:43:22;11.70;;;4.93;;
22557;SDS011;11445;53.816;8.902;2023-03-14T05:45:49;13.05;;;4.68;;
22557;SDS011;11445;53.816;8.902;2023-03-14T05:48:16;12.25;;;4.40;;
22557;SDS011;11445;53.816;8.902;2023-03-14T05:50:43;12.88;;;4.85;;
22557;SDS011;11445;53.816;8.902;2023-03-14T05:53:11;12.15;;;4.55;;
22557;SDS011;11445;53.816;8.902;2023-03-14T05:55:39;14.93;;;4.82;;
22557;SDS011;11445;53.816;8.902;2023-03-14T05:58:06;12.25;;;3.60;;
22557;SDS011;11445;53.816;8.902;2023-03-14T06:00:33;12.02;;;4.40;;
22557;SDS011;11445;53.816;8.902;2023-03-14T06:03:00;16.23;;;4.38;;
22557;SDS011;11445;53.816;8.902;2023-03-14T06:05:27;13.85;;;4.72;;
22557;SDS011;11445;53.816;8.902;2023-03-14T06:07:54;15.25;;;3.95;;
22557;SDS011;11445;53.816;8.902;2023-03-14T06:10:21;14.55;;;3.85;;
22557;SDS011;11445;53.816;8.902;2023-03-14T06:12:50;11.55;;;3.80;;
22557;SDS011;11445;53.816;8.902;2023-03-14T06:15:17;9.82;;;3.63;;
22557;SDS011;11445;53.816;8.902;2023-03-14T06:17:44;17.65;;;4.40;;
22557;SDS011;11445;53.816;8.902;2023-03-14T06:20:11;14.43;;;3.88;;
22557;SDS011;11445;53.816;8.902;2023-03-14T06:22:38;11.35;;;3.63;;
22557;SDS011;11445;53.816;8.902;2023-03-14T06:25:07;11.73;;;4.07;;
22557;SDS011;11445;53.816;8.902;2023-03-14T06:27:34;11.55;;;3.80;;
22557;SDS011;11445;53.816;8.902;2023-03-14T06:30:03;7.28;;;3.20;;
22557;SDS011;11445;53.816;8.902;2023-03-14T06:32:31;12.20;;;3.70;;
22557;SDS011;11445;53.816;8.902;2023-03-14T06:34:58;13.63;;;3.65;;
22557;SDS011;11445;53.816;8.902;2023-03-14T06:37:26;11.02;;;3.78;;
22557;SDS011;11445;53.816;8.902;2023-03-14T06:39:53;11.25;;;3.92;;
22557;SDS011;11445;53.816;8.902;2023-03-14T06:42:21;8.18;;;3.40;;
22557;SDS011;11445;53.816;8.902;2023-03-14T06:44:48;11.35;;;4.40;;
22557;SDS011;11445;53.816;8.902;2023-03-14T06:47:16;13.40;;;4.05;;
22557;SDS011;11445;53.816;8.902;2023-03-14T06:49:43;10.77;;;3.90;;
22557;SDS011;11445;53.816;8.902;2023-03-14T06:52:10;14.43;;;4.10;;
22557;SDS011;11445;53.816;8.902;2023-03-14T06:54:37;10.20;;;4.03;;
22557;SDS011;11445;53.816;8.902;2023-03-14T06:57:04;10.68;;;3.65;;
22557;SDS011;11445;53.816;8.902;2023-03-14T06:59:31;9.00;;;3.85;;
22557;SDS011;11445;53.816;8.902;2023-03-14T07:01:59;7.57;;;3.80;;
22557;SDS011;11445;53.816;8.902;2023-03-14T07:04:27;7.80;;;3.92;;
22557;SDS011;11445;53.816;8.902;2023-03-14T07:06:54;12.30;;;3.60;;
22557;SDS011;11445;53.816;8.902;2023-03-14T07:09:21;14.40;;;4.30;;
22557;SDS011;11445;53.816;8.902;2023-03-14T07:11:48;18.13;;;4.82;;
22557;SDS011;11445;53.816;8.902;2023-03-14T07:14:15;9.85;;;3.97;;
22557;SDS011;11445;53.816;8.902;2023-03-14T07:16:42;12.50;;;4.22;;
22557;SDS011;11445;53.816;8.902;2023-03-14T07:19:10;11.18;;;3.95;;
22557;SDS011;11445;53.816;8.902;2023-03-14T07:21:38;11.20;;;4.07;;
22557;SDS011;11445;53.816;8.902;2023-03-14T07:24:05;12.02;;;4.75;;
22557;SDS011;11445;53.816;8.902;2023-03-14T07:26:33;13.20;;;3.65;;
22557;SDS011;11445;53.816;8.902;2023-03-14T07:29:00;9.85;;;4.30;;
22557;SDS011;11445;53.816;8.902;2023-03-14T07:31:28;15.18;;;4.47;;
22557;SDS011;11445;53.816;8.902;2023-03-14T07:33:55;13.18;;;4.18;;
22557;SDS011;11445;53.816;8.902;2023-03-14T07:36:22;9.98;;;3.75;;
22557;SDS011;11445;53.816;8.902;2023-03-14T07:38:51;14.60;;;4.60;;
22557;SDS011;11445;53.816;8.902;2023-03-14T07:41:18;13.10;;;4.28;;
22557;SDS011;11445;53.816;8.902;2023-03-14T07:43:46;11.93;;;4.55;;
22557;SDS011;11445;53.816;8.902;2023-03-14T07:46:13;16.60;;;4.40;;
22557;SDS011;11445;53.816;8.902;2023-03-14T07:48:40;13.07;;;4.25;;
22557;SDS011;11445;53.816;8.902;2023-03-14T07:51:07;10.57;;;3.85;;
22557;SDS011;11445;53.816;8.902;2023-03-14T07:53:34;10.60;;;4.00;;
22557;SDS011;11445;53.816;8.902;2023-03-14T07:56:03;13.60;;;4.25;;
22557;SDS011;11445;53.816;8.902;2023-03-14T07:58:30;11.38;;;4.28;;
22557;SDS011;11445;53.816;8.902;2023-03-14T08:00:58;14.00;;;4.70;;
22557;SDS011;11445;53.816;8.902;2023-03-14T08:03:25;9.23;;;4.05;;
22557;SDS011;11445;53.816;8.902;2023-03-14T08:05:53;13.02;;;4.30;;
22557;SDS011;11445;53.816;8.902;2023-03-14T08:08:20;10.13;;;3.95;;
22557;SDS011;11445;53.816;8.902;2023-03-14T08:10:47;13.85;;;4.85;;
22557;SDS011;11445;53.816;8.902;2023-03-14T08:13:15;18.50;;;3.58;;
22557;SDS011;11445;53.816;8.902;2023-03-14T08:15:42;22.50;;;3.83;;
22557;SDS011;11445;53.816;8.902;2023-03-14T08:18:13;15.45;;;3.20;;
22557;SDS011;11445;53.816;8.902;2023-03-14T08:20:40;9.93;;;1.73;;
22557;SDS011;11445;53.816;8.902;2023-03-14T08:23:07;25.27;;;2.40;;
22557;SDS011;11445;53.816;8.902;2023-03-14T08:25:34;12.65;;;2.05;;
22557;SDS011;11445;53.816;8.902;2023-03-14T08:28:01;10.07;;;1.40;;
22557;SDS011;11445;53.816;8.902;2023-03-14T08:30:30;8.95;;;1.67;;
22557;SDS011;11445;53.816;8.902;2023-03-14T08:32:57;12.43;;;1.70;;
22557;SDS011;11445;53.816;8.902;2023-03-14T08:35:24;14.23;;;1.05;;
22557;SDS011;11445;53.816;8.902;2023-03-14T08:37:52;12.02;;;1.30;;
22557;SDS011;11445;53.816;8.902;2023-03-14T08:40:19;6.93;;;1.10;;
22557;SDS011;11445;53.816;8.902;2023-03-14T08:42:46;6.47;;;1.17;;
22557;SDS011;11445;53.816;8.902;2023-03-14T08:45:14;7.88;;;1.25;;
22557;SDS011;11445;53.816;8.902;2023-03-14T08:47:43;15.32;;;1.58;;
22557;SDS011;11445;53.816;8.902;2023-03-14T08:50:11;7.15;;;0.93;;
22557;SDS011;11445;53.816;8.902;2023-03-14T08:52:39;7.07;;;0.75;;
22557;SDS011;11445;53.816;8.902;2023-03-14T08:55:07;5.10;;;0.90;;
22557;SDS011;11445;53.816;8.902;2023-03-14T08:57:35;5.43;;;0.70;;
22557;SDS011;11445;53.816;8.902;2023-03-14T09:00:02;4.70;;;0.43;;
22557;SDS011;11445;53.816;8.902;2023-03-14T09:02:34;10.45;;;0.90;;
22557;SDS011;11445;53.816;8.902;2023-03-14T09:05:02;6.68;;;0.93;;
22557;SDS011;11445;53.816;8.902;2023-03-14T09:07:30;4.03;;;0.80;;
22557;SDS011;11445;53.816;8.902;2023-03-14T09:09:57;4.90;;;1.10;;
22557;SDS011;11445;53.816;8.902;2023-03-14T09:12:24;4.20;;;0.52;;
22557;SDS011;11445;53.816;8.902;2023-03-14T09:14:51;9.43;;;0.80;;
22557;SDS011;11445;53.816;8.902;2023-03-14T09:17:18;6.78;;;1.25;;
22557;SDS011;11445;53.816;8.902;2023-03-14T09:19:45;4.70;;;0.85;;
22557;SDS011;11445;53.816;8.902;2023-03-14T09:22:13;3.65;;;0.70;;
22557;SDS011;11445;53.816;8.902;2023-03-14T09:24:40;4.88;;;0.82;;
22557;SDS011;11445;53.816;8.902;2023-03-14T09:27:07;5.72;;;0.93;;
22557;SDS011;11445;53.816;8.902;2023-03-14T09:29:34;5.68;;;0.93;;
22557;SDS011;11445;53.816;8.902;2023-03-14T09:32:01;4.85;;;0.70;;
22557;SDS011;11445;53.816;8.902;2023-03-14T09:34:28;4.43;;;1.00;;
22557;SDS011;11445;53.816;8.902;2023-03-14T09:36:56;9.18;;;1.00;;
22557;SDS011;11445;53.816;8.902;2023-03-14T09:39:24;6.45;;;0.93;;
22557;SDS011;11445;53.816;8.902;2023-03-14T09:41:52;2.80;;;0.85;;
22557;SDS011;11445;53.816;8.902;2023-03-14T09:44:24;2.50;;;0.73;;
22557;SDS011;11445;53.816;8.902;2023-03-14T09:46:54;3.38;;;0.85;;
22557;SDS011;11445;53.816;8.902;2023-03-14T09:49:25;7.18;;;0.70;;
22557;SDS011;11445;53.816;8.902;2023-03-14T09:51:56;3.53;;;0.70;;
22557;SDS011;11445;53.816;8.902;2023-03-14T09:54:34;1.80;;;0.73;;
22557;SDS011;11445;53.816;8.902;2023-03-14T09:57:04;4.03;;;0.90;;
22557;SDS011;11445;53.816;8.902;2023-03-14T09:59:32;3.72;;;0.90;;
22557;SDS011;11445;53.816;8.902;2023-03-14T10:02:01;5.35;;;0.77;;
22557;SDS011;11445;53.816;8.902;2023-03-14T10:04:37;2.88;;;0.68;;
22557;SDS011;11445;53.816;8.902;2023-03-14T10:07:09;4.70;;;1.10;;
22557;SDS011;11445;53.816;8.902;2023-03-14T10:09:44;2.90;;;0.70;;
22557;SDS011;11445;53.816;8.902;2023-03-14T10:12:12;2.72;;;0.70;;
22557;SDS011;11445;53.816;8.902;2023-03-14T10:14:44;4.32;;;0.60;;
22557;SDS011;11445;53.816;8.902;2023-03-14T10:17:12;5.70;;;1.00;;
22557;SDS011;11445;53.816;8.902;2023-03-14T10:19:50;6.43;;;1.25;;
22557;SDS011;11445;53.816;8.902;2023-03-14T10:22:19;6.60;;;0.80;;
22557;SDS011;11445;53.816;8.902;2023-03-14T10:24:49;6.90;;;1.30;;
22557;SDS011;11445;53.816;8.902;2023-03-14T10:27:20;7.32;;;0.88;;
22557;SDS011;11445;53.816;8.902;2023-03-14T10:29:51;7.40;;;0.90;;
22557;SDS011;11445;53.816;8.902;2023-03-14T10:35:03;5.50;;;0.70;;
22557;SDS011;11445;53.816;8.902;2023-03-14T10:37:47;5.53;;;0.77;;
22557;SDS011;11445;53.816;8.902;2023-03-14T10:40:19;5.97;;;1.50;;
22557;SDS011;11445;53.816;8.902;2023-03-14T10:42:51;7.18;;;1.13;;
22557;SDS011;11445;53.816;8.902;2023-03-14T10:45:27;10.88;;;1.15;;
22557;SDS011;11445;53.816;8.902;2023-03-14T10:47:58;6.20;;;1.20;;
22557;SDS011;11445;53.816;8.902;2023-03-14T10:50:32;10.18;;;1.50;;
22557;SDS011;11445;53.816;8.902;2023-03-14T10:53:01;9.02;;;1.45;;
22557;SDS011;11445;53.816;8.902;2023-03-14T10:55:39;13.65;;;1.80;;
22557;SDS011;11445;53.816;8.902;2023-03-14T10:58:17;8.65;;;1.48;;
22557;SDS011;11445;53.816;8.902;2023-03-14T11:00:50;19.35;;;2.65;;
22557;SDS011;11445;53.816;8.902;2023-03-14T11:03:23;15.88;;;1.77;;
22557;SDS011;11445;53.816;8.902;2023-03-14T11:05:53;10.05;;;1.40;;
22557;SDS011;11445;53.816;8.902;2023-03-14T11:08:24;11.43;;;2.00;;
22557;SDS011;11445;53.816;8.902;2023-03-14T11:11:09;11.32;;;2.00;;
22557;SDS011;11445;53.816;8.902;2023-03-14T11:13:43;21.38;;;2.38;;
22557;SDS011;11445;53.816;8.902;2023-03-14T11:16:21;14.15;;;2.20;;
22557;SDS011;11445;53.816;8.902;2023-03-14T11:21:46;19.42;;;2.78;;
22557;SDS011;11445;53.816;8.902;2023-03-14T11:24:25;14.25;;;4.07;;
22557;SDS011;11445;53.816;8.902;2023-03-14T11:27:14;9.85;;;2.72;;
22557;SDS011;11445;53.816;8.902;2023-03-14T11:29:45;16.50;;;2.13;;
22557;SDS011;11445;53.816;8.902;2023-03-14T11:32:34;15.02;;;2.10;;
22557;SDS011;11445;53.816;8.902;2023-03-14T11:35:12;21.60;;;3.10;;
22557;SDS011;11445;53.816;8.902;2023-03-14T11:37:51;14.73;;;2.95;;
22557;SDS011;11445;53.816;8.902;2023-03-14T11:40:21;16.65;;;2.22;;
22557;SDS011;11445;53.816;8.902;2023-03-14T11:42:53;15.55;;;2.63;;
22557;SDS011;11445;53.816;8.902;2023-03-14T11:45:25;18.90;;;3.47;;
22557;SDS011;11445;53.816;8.902;2023-03-14T11:48:01;15.57;;;2.42;;
22557;SDS011;11445;53.816;8.902;2023-03-14T11:50:49;17.33;;;2.58;;
22557;SDS011;11445;53.816;8.902;2023-03-14T11:53:21;7.50;;;1.45;;
22557;SDS011;11445;53.816;8.902;2023-03-14T11:55:56;6.35;;;1.85;;
22557;SDS011;11445;53.816;8.902;2023-03-14T11:58:25;11.20;;;2.15;;
22557;SDS011;11445;53.816;8.902;2023-03-14T12:00:54;13.85;;;2.30;;
22557;SDS011;11445;53.816;8.902;2023-03-14T12:03:25;13.27;;;1.75;;
22557;SDS011;11445;53.816;8.902;2023-03-14T12:06:02;7.22;;;2.30;;
22557;SDS011;11445;53.816;8.902;2023-03-14T12:08:49;7.78;;;1.73;;
22557;SDS011;11445;53.816;8.902;2023-03-14T12:11:24;7.47;;;2.03;;
22557;SDS011;11445;53.816;8.902;2023-03-14T12:14:00;16.77;;;1.70;;
22557;SDS011;11445;53.816;8.902;2023-03-14T12:16:32;15.00;;;2.60;;
22557;SDS011;11445;53.816;8.902;2023-03-14T12:25:05;7.75;;;1.63;;
22557;SDS011;11445;53.816;8.902;2023-03-14T12:27:42;11.18;;;2.03;;
22557;SDS011;11445;53.816;8.902;2023-03-14T12:30:27;10.48;;;1.80;;
22557;SDS011;11445;53.816;8.902;2023-03-14T12:33:12;14.90;;;2.10;;
22557;SDS011;11445;53.816;8.902;2023-03-14T12:35:57;11.20;;;1.85;;
22557;SDS011;11445;53.816;8.902;2023-03-14T12:38:46;8.93;;;1.50;;
22557;SDS011;11445;53.816;8.902;2023-03-14T12:41:25;14.35;;;1.92;;
22557;SDS011;11445;53.816;8.902;2023-03-14T12:43:55;14.43;;;2.20;;
22557;SDS011;11445;53.816;8.902;2023-03-14T12:46:24;16.60;;;1.88;;
22557;SDS011;11445;53.816;8.902;2023-03-14T12:48:56;9.95;;;1.50;;
22557;SDS011;11445;53.816;8.902;2023-03-14T12:51:34;13.00;;;1.75;;
22557;SDS011;11445;53.816;8.902;2023-03-14T12:57:00;6.97;;;1.65;;
22557;SDS011;11445;53.816;8.902;2023-03-14T12:59:45;8.90;;;1.40;;
22557;SDS011;11445;53.816;8.902;2023-03-14T13:02:25;12.48;;;2.00;;
22557;SDS011;11445;53.816;8.902;2023-03-14T13:05:00;6.57;;;1.70;;
22557;SDS011;11445;53.816;8.902;2023-03-14T13:07:31;10.15;;;2.00;;
22557;SDS011;11445;53.816;8.902;2023-03-14T13:10:20;8.68;;;2.45;;
22557;SDS011;11445;53.816;8.902;2023-03-14T13:12:49;14.25;;;2.22;;
22557;SDS011;11445;53.816;8.902;2023-03-14T13:15:19;10.32;;;1.65;;
22557;SDS011;11445;53.816;8.902;2023-03-14T13:17:53;8.05;;;1.83;;
22557;SDS011;11445;53.816;8.902;2023-03-14T13:20:28;12.88;;;1.88;;
22557;SDS011;11445;53.816;8.902;2023-03-14T13:22:57;11.77;;;2.57;;
22557;SDS011;11445;53.816;8.902;2023-03-14T13:25:24;19.08;;;2.13;;
22557;SDS011;11445;53.816;8.902;2023-03-14T13:27:56;15.27;;;2.03;;
22557;SDS011;11445;53.816;8.902;2023-03-14T13:30:25;14.88;;;1.90;;
22557;SDS011;11445;53.816;8.902;2023-03-14T13:32:56;11.52;;;2.33;;
22557;SDS011;11445;53.816;8.902;2023-03-14T13:35:24;7.38;;;2.05;;
22557;SDS011;11445;53.816;8.902;2023-03-14T13:37:54;19.75;;;2.95;;
22557;SDS011;11445;53.816;8.902;2023-03-14T13:40:24;10.60;;;2.15;;
22557;SDS011;11445;53.816;8.902;2023-03-14T13:43:11;15.25;;;2.88;;
22557;SDS011;11445;53.816;8.902;2023-03-14T13:45:46;10.35;;;1.70;;
22557;SDS011;11445;53.816;8.902;2023-03-14T13:48:20;13.55;;;2.38;;
22557;SDS011;11445;53.816;8.902;2023-03-14T13:50:52;16.52;;;1.95;;
22557;SDS011;11445;53.816;8.902;2023-03-14T13:53:22;13.80;;;2.08;;
22557;SDS011;11445;53.816;8.902;2023-03-14T13:55:49;15.20;;;1.98;;
22557;SDS011;11445;53.816;8.902;2023-03-14T13:58:21;8.63;;;1.52;;
22557;SDS011;11445;53.816;8.902;2023-03-14T14:00:54;9.23;;;1.75;;
22557;SDS011;11445;53.816;8.902;2023-03-14T14:03:34;10.98;;;1.50;;
22557;SDS011;11445;53.816;8.902;2023-03-14T14:06:05;11.25;;;1.65;;
22557;SDS011;11445;53.816;8.902;2023-03-14T14:08:39;13.35;;;2.20;;
22557;SDS011;11445;53.816;8.902;2023-03-14T14:11:08;12.55;;;1.77;;
22557;SDS011;11445;53.816;8.902;2023-03-14T14:13:44;10.60;;;2.28;;
22557;SDS011;11445;53.816;8.902;2023-03-14T14:16:11;10.98;;;1.88;;
22557;SDS011;11445;53.816;8.902;2023-03-14T14:18:41;15.00;;;2.70;;
22557;SDS011;11445;53.816;8.902;2023-03-14T14:21:09;9.85;;;2.08;;
22557;SDS011;11445;53.816;8.902;2023-03-14T14:23:37;14.25;;;1.83;;
22557;SDS011;11445;53.816;8.902;2023-03-14T14:26:04;19.30;;;2.47;;
22557;SDS011;11445;53.816;8.902;2023-03-14T14:28:33;13.20;;;2.50;;
22557;SDS011;11445;53.816;8.902;2023-03-14T14:31:04;17.50;;;1.80;;
22557;SDS011;11445;53.816;8.902;2023-03-14T14:33:44;15.85;;;2.55;;
22557;SDS011;11445;53.816;8.902;2023-03-14T14:36:19;15.52;;;2.47;;
22557;SDS011;11445;53.816;8.902;2023-03-14T14:38:49;15.70;;;1.80;;
22557;SDS011;11445;53.816;8.902;2023-03-14T14:41:17;12.65;;;1.67;;
22557;SDS011;11445;53.816;8.902;2023-03-14T14:43:44;14.05;;;2.17;;
22557;SDS011;11445;53.816;8.902;2023-03-14T14:46:13;8.32;;;2.25;;
22557;SDS011;11445;53.816;8.902;2023-03-14T14:48:46;8.45;;;1.70;;
22557;SDS011;11445;53.816;8.902;2023-03-14T14:51:23;13.45;;;1.60;;
22557;SDS011;11445;53.816;8.902;2023-03-14T14:54:05;12.02;;;2.22;;
22557;SDS011;11445;53.816;8.902;2023-03-14T14:56:37;7.22;;;1.85;;
22557;SDS011;11445;53.816;8.902;2023-03-14T14:59:06;7.65;;;1.70;;
22557;SDS011;11445;53.816;8.902;2023-03-14T15:01:45;11.98;;;1.77;;
22557;SDS011;11445;53.816;8.902;2023-03-14T15:04:16;7.95;;;1.58;;
22557;SDS011;11445;53.816;8.902;2023-03-14T15:06:44;6.20;;;1.52;;
22557;SDS011;11445;53.816;8.902;2023-03-14T15:09:15;9.43;;;1.80;;
22557;SDS011;11445;53.816;8.902;2023-03-14T15:11:43;11.50;;;1.52;;